X  Close Metar Aviation Weather Data     LBPD Plovdiv International Airport
Temperature
14°C Temperature
13°C Dewpoint
94% Humidity



Wind
0 KM/H
0 MPH
0 M/S
0 KTS



Calm
N
Current Conditions

Mostly Cloudy Mostly Cloudy
Pressure 1017.95 (hPa) - 30.06 (inHg)
Visibility 6 (mile) - 9.7 (km)
Airport
Airport-code LBPD

Location: Plovdiv International Airport
Distance: 14 (km)

Metar:
LBPD 242130Z AUTO 00000KT 9999 BKN066/// BKN082/// 14/13 Q1018

Time: 25-05-2024 00:30 EEST